sensor_id;sensor_type;location;lat;lon;timestamp;P1;durP1;ratioP1;P2;durP2;ratioP2
41883;SDS011;27566;50.930;5.328;2024-03-17T00:02:02;19.45;;;11.73;;
41883;SDS011;27566;50.930;5.328;2024-03-17T00:04:29;18.20;;;11.25;;
41883;SDS011;27566;50.930;5.328;2024-03-17T00:06:57;16.48;;;9.88;;
41883;SDS011;27566;50.930;5.328;2024-03-17T00:09:23;14.55;;;8.73;;
41883;SDS011;27566;50.930;5.328;2024-03-17T00:11:49;14.48;;;9.13;;
41883;SDS011;27566;50.930;5.328;2024-03-17T00:14:15;18.55;;;10.70;;
41883;SDS011;27566;50.930;5.328;2024-03-17T00:16:43;16.75;;;9.38;;
41883;SDS011;27566;50.930;5.328;2024-03-17T00:19:09;15.07;;;9.32;;
41883;SDS011;27566;50.930;5.328;2024-03-17T00:21:35;15.23;;;9.20;;
41883;SDS011;27566;50.930;5.328;2024-03-17T00:24:01;12.30;;;8.90;;
41883;SDS011;27566;50.930;5.328;2024-03-17T00:26:28;15.88;;;9.48;;
41883;SDS011;27566;50.930;5.328;2024-03-17T00:28:54;14.73;;;9.13;;
41883;SDS011;27566;50.930;5.328;2024-03-17T00:31:20;15.55;;;9.52;;
41883;SDS011;27566;50.930;5.328;2024-03-17T00:33:46;17.67;;;8.35;;
41883;SDS011;27566;50.930;5.328;2024-03-17T00:36:13;16.10;;;9.00;;
41883;SDS011;27566;50.930;5.328;2024-03-17T00:38:39;16.20;;;9.52;;
41883;SDS011;27566;50.930;5.328;2024-03-17T00:41:05;16.02;;;9.70;;
41883;SDS011;27566;50.930;5.328;2024-03-17T00:43:31;18.25;;;10.80;;
41883;SDS011;27566;50.930;5.328;2024-03-17T00:45:57;13.38;;;8.73;;
41883;SDS011;27566;50.930;5.328;2024-03-17T00:48:24;15.55;;;9.57;;
41883;SDS011;27566;50.930;5.328;2024-03-17T00:50:56;14.98;;;9.13;;
41883;SDS011;27566;50.930;5.328;2024-03-17T00:53:22;18.48;;;11.25;;
41883;SDS011;27566;50.930;5.328;2024-03-17T00:55:52;14.82;;;8.75;;
41883;SDS011;27566;50.930;5.328;2024-03-17T00:58:22;12.90;;;8.38;;
41883;SDS011;27566;50.930;5.328;2024-03-17T01:00:47;14.48;;;9.27;;
41883;SDS011;27566;50.930;5.328;2024-03-17T01:03:14;15.80;;;9.27;;
41883;SDS011;27566;50.930;5.328;2024-03-17T01:05:41;13.75;;;8.50;;
41883;SDS011;27566;50.930;5.328;2024-03-17T01:08:09;15.75;;;9.23;;
41883;SDS011;27566;50.930;5.328;2024-03-17T01:10:42;13.02;;;9.13;;
41883;SDS011;27566;50.930;5.328;2024-03-17T01:13:09;14.98;;;9.52;;
41883;SDS011;27566;50.930;5.328;2024-03-17T01:15:36;16.83;;;9.75;;
41883;SDS011;27566;50.930;5.328;2024-03-17T01:18:04;16.17;;;9.05;;
41883;SDS011;27566;50.930;5.328;2024-03-17T01:20:31;12.82;;;8.68;;
41883;SDS011;27566;50.930;5.328;2024-03-17T01:22:58;13.52;;;8.77;;
41883;SDS011;27566;50.930;5.328;2024-03-17T01:25:24;16.10;;;9.45;;
41883;SDS011;27566;50.930;5.328;2024-03-17T01:27:54;13.80;;;8.45;;
41883;SDS011;27566;50.930;5.328;2024-03-17T01:30:21;16.45;;;9.65;;
41883;SDS011;27566;50.930;5.328;2024-03-17T01:32:47;13.10;;;8.63;;
41883;SDS011;27566;50.930;5.328;2024-03-17T01:35:16;17.40;;;9.07;;
41883;SDS011;27566;50.930;5.328;2024-03-17T01:37:42;17.38;;;10.00;;
41883;SDS011;27566;50.930;5.328;2024-03-17T01:40:09;13.52;;;9.40;;
41883;SDS011;27566;50.930;5.328;2024-03-17T01:42:36;15.25;;;9.05;;
41883;SDS011;27566;50.930;5.328;2024-03-17T01:45:20;17.65;;;10.35;;
41883;SDS011;27566;50.930;5.328;2024-03-17T01:47:54;20.70;;;9.30;;
41883;SDS011;27566;50.930;5.328;2024-03-17T01:50:24;15.82;;;9.65;;
41883;SDS011;27566;50.930;5.328;2024-03-17T01:52:58;16.55;;;9.10;;
41883;SDS011;27566;50.930;5.328;2024-03-17T01:55:27;14.52;;;9.20;;
41883;SDS011;27566;50.930;5.328;2024-03-17T01:57:53;15.80;;;9.27;;
41883;SDS011;27566;50.930;5.328;2024-03-17T02:00:20;17.98;;;8.98;;
41883;SDS011;27566;50.930;5.328;2024-03-17T02:02:46;16.80;;;9.13;;
41883;SDS011;27566;50.930;5.328;2024-03-17T02:05:12;15.40;;;9.40;;
41883;SDS011;27566;50.930;5.328;2024-03-17T02:07:39;16.95;;;8.90;;
41883;SDS011;27566;50.930;5.328;2024-03-17T02:10:05;16.20;;;10.68;;
41883;SDS011;27566;50.930;5.328;2024-03-17T02:12:33;15.07;;;8.60;;
41883;SDS011;27566;50.930;5.328;2024-03-17T02:15:00;16.08;;;9.35;;
41883;SDS011;27566;50.930;5.328;2024-03-17T02:17:30;17.00;;;9.65;;
41883;SDS011;27566;50.930;5.328;2024-03-17T02:19:59;15.38;;;9.73;;
41883;SDS011;27566;50.930;5.328;2024-03-17T02:22:26;13.52;;;8.55;;
41883;SDS011;27566;50.930;5.328;2024-03-17T02:24:55;15.38;;;9.45;;
41883;SDS011;27566;50.930;5.328;2024-03-17T02:27:21;16.65;;;9.23;;
41883;SDS011;27566;50.930;5.328;2024-03-17T02:29:47;13.93;;;9.35;;
41883;SDS011;27566;50.930;5.328;2024-03-17T02:32:13;13.85;;;8.77;;
41883;SDS011;27566;50.930;5.328;2024-03-17T02:34:39;15.05;;;9.68;;
41883;SDS011;27566;50.930;5.328;2024-03-17T02:37:06;14.85;;;8.98;;
41883;SDS011;27566;50.930;5.328;2024-03-17T02:39:32;14.30;;;9.23;;
41883;SDS011;27566;50.930;5.328;2024-03-17T02:42:05;16.52;;;9.27;;
41883;SDS011;27566;50.930;5.328;2024-03-17T02:46:59;16.00;;;8.63;;
41883;SDS011;27566;50.930;5.328;2024-03-17T02:49:26;16.00;;;8.73;;
41883;SDS011;27566;50.930;5.328;2024-03-17T02:52:00;13.10;;;8.43;;
41883;SDS011;27566;50.930;5.328;2024-03-17T02:54:26;14.20;;;7.85;;
41883;SDS011;27566;50.930;5.328;2024-03-17T02:56:52;15.63;;;8.65;;
41883;SDS011;27566;50.930;5.328;2024-03-17T02:59:18;13.85;;;8.30;;
41883;SDS011;27566;50.930;5.328;2024-03-17T03:01:44;13.75;;;8.00;;
41883;SDS011;27566;50.930;5.328;2024-03-17T03:04:10;14.77;;;8.00;;
41883;SDS011;27566;50.930;5.328;2024-03-17T03:06:36;12.10;;;7.55;;
41883;SDS011;27566;50.930;5.328;2024-03-17T03:09:03;14.40;;;7.93;;
41883;SDS011;27566;50.930;5.328;2024-03-17T03:11:35;19.42;;;9.10;;
41883;SDS011;27566;50.930;5.328;2024-03-17T03:14:01;13.13;;;7.18;;
41883;SDS011;27566;50.930;5.328;2024-03-17T03:16:27;12.05;;;7.55;;
41883;SDS011;27566;50.930;5.328;2024-03-17T03:18:53;15.13;;;7.38;;
41883;SDS011;27566;50.930;5.328;2024-03-17T03:21:19;12.95;;;7.18;;
41883;SDS011;27566;50.930;5.328;2024-03-17T03:23:46;16.17;;;8.63;;
41883;SDS011;27566;50.930;5.328;2024-03-17T03:26:12;14.18;;;8.18;;
41883;SDS011;27566;50.930;5.328;2024-03-17T03:28:38;13.60;;;7.63;;
41883;SDS011;27566;50.930;5.328;2024-03-17T03:31:04;14.88;;;7.63;;
41883;SDS011;27566;50.930;5.328;2024-03-17T03:33:32;13.95;;;7.90;;
41883;SDS011;27566;50.930;5.328;2024-03-17T03:35:58;13.48;;;6.63;;
41883;SDS011;27566;50.930;5.328;2024-03-17T03:38:23;12.98;;;6.35;;
41883;SDS011;27566;50.930;5.328;2024-03-17T03:40:50;12.40;;;7.60;;
41883;SDS011;27566;50.930;5.328;2024-03-17T03:43:17;12.18;;;7.50;;
41883;SDS011;27566;50.930;5.328;2024-03-17T03:45:43;15.27;;;7.45;;
41883;SDS011;27566;50.930;5.328;2024-03-17T03:48:10;14.07;;;6.25;;
41883;SDS011;27566;50.930;5.328;2024-03-17T03:50:37;16.08;;;8.07;;
41883;SDS011;27566;50.930;5.328;2024-03-17T03:53:03;12.85;;;7.70;;
41883;SDS011;27566;50.930;5.328;2024-03-17T03:55:30;14.00;;;7.40;;
41883;SDS011;27566;50.930;5.328;2024-03-17T03:57:56;12.93;;;7.90;;
41883;SDS011;27566;50.930;5.328;2024-03-17T04:00:23;12.63;;;6.72;;
41883;SDS011;27566;50.930;5.328;2024-03-17T04:02:49;10.73;;;6.95;;
41883;SDS011;27566;50.930;5.328;2024-03-17T04:05:17;12.90;;;6.43;;
41883;SDS011;27566;50.930;5.328;2024-03-17T04:07:44;12.05;;;6.68;;
41883;SDS011;27566;50.930;5.328;2024-03-17T04:10:19;12.82;;;5.95;;
41883;SDS011;27566;50.930;5.328;2024-03-17T04:12:45;12.98;;;7.03;;
41883;SDS011;27566;50.930;5.328;2024-03-17T04:15:12;13.48;;;7.18;;
41883;SDS011;27566;50.930;5.328;2024-03-17T04:17:39;9.63;;;5.88;;
41883;SDS011;27566;50.930;5.328;2024-03-17T04:20:05;10.10;;;6.32;;
41883;SDS011;27566;50.930;5.328;2024-03-17T04:22:38;10.88;;;5.30;;
41883;SDS011;27566;50.930;5.328;2024-03-17T04:25:04;12.82;;;6.72;;
41883;SDS011;27566;50.930;5.328;2024-03-17T04:27:30;9.88;;;5.53;;
41883;SDS011;27566;50.930;5.328;2024-03-17T04:29:57;9.13;;;5.32;;
41883;SDS011;27566;50.930;5.328;2024-03-17T04:32:24;9.23;;;5.38;;
41883;SDS011;27566;50.930;5.328;2024-03-17T04:34:52;11.65;;;6.38;;
41883;SDS011;27566;50.930;5.328;2024-03-17T04:37:18;8.77;;;5.30;;
41883;SDS011;27566;50.930;5.328;2024-03-17T04:39:44;9.82;;;4.72;;
41883;SDS011;27566;50.930;5.328;2024-03-17T04:42:12;8.90;;;5.05;;
41883;SDS011;27566;50.930;5.328;2024-03-17T04:44:39;9.40;;;4.60;;
41883;SDS011;27566;50.930;5.328;2024-03-17T04:47:06;9.55;;;4.63;;
41883;SDS011;27566;50.930;5.328;2024-03-17T04:49:41;8.57;;;4.97;;
41883;SDS011;27566;50.930;5.328;2024-03-17T04:52:08;9.85;;;4.85;;
41883;SDS011;27566;50.930;5.328;2024-03-17T04:54:35;8.35;;;4.75;;
41883;SDS011;27566;50.930;5.328;2024-03-17T04:57:01;9.75;;;4.93;;
41883;SDS011;27566;50.930;5.328;2024-03-17T04:59:27;8.70;;;4.60;;
41883;SDS011;27566;50.930;5.328;2024-03-17T05:01:54;9.13;;;5.55;;
41883;SDS011;27566;50.930;5.328;2024-03-17T05:04:20;11.82;;;5.75;;
41883;SDS011;27566;50.930;5.328;2024-03-17T05:06:46;10.40;;;5.63;;
41883;SDS011;27566;50.930;5.328;2024-03-17T05:09:18;11.32;;;6.32;;
41883;SDS011;27566;50.930;5.328;2024-03-17T05:11:44;9.05;;;5.57;;
41883;SDS011;27566;50.930;5.328;2024-03-17T05:14:11;7.65;;;4.60;;
41883;SDS011;27566;50.930;5.328;2024-03-17T05:16:37;6.57;;;4.10;;
41883;SDS011;27566;50.930;5.328;2024-03-17T05:19:10;9.02;;;5.18;;
41883;SDS011;27566;50.930;5.328;2024-03-17T05:21:36;10.68;;;4.53;;
41883;SDS011;27566;50.930;5.328;2024-03-17T05:24:02;12.80;;;7.72;;
41883;SDS011;27566;50.930;5.328;2024-03-17T05:26:28;9.05;;;5.40;;
41883;SDS011;27566;50.930;5.328;2024-03-17T05:28:56;8.85;;;4.88;;
41883;SDS011;27566;50.930;5.328;2024-03-17T05:31:22;10.23;;;5.45;;
41883;SDS011;27566;50.930;5.328;2024-03-17T05:33:48;9.13;;;4.47;;
41883;SDS011;27566;50.930;5.328;2024-03-17T05:36:14;9.38;;;6.32;;
41883;SDS011;27566;50.930;5.328;2024-03-17T05:38:40;12.77;;;5.05;;
41883;SDS011;27566;50.930;5.328;2024-03-17T05:41:06;10.38;;;5.63;;
41883;SDS011;27566;50.930;5.328;2024-03-17T05:43:34;10.73;;;4.80;;
41883;SDS011;27566;50.930;5.328;2024-03-17T05:46:01;8.82;;;5.80;;
41883;SDS011;27566;50.930;5.328;2024-03-17T05:48:28;9.70;;;5.28;;
41883;SDS011;27566;50.930;5.328;2024-03-17T05:50:57;11.07;;;5.70;;
41883;SDS011;27566;50.930;5.328;2024-03-17T05:53:26;11.02;;;5.60;;
41883;SDS011;27566;50.930;5.328;2024-03-17T05:55:51;8.65;;;5.20;;
41883;SDS011;27566;50.930;5.328;2024-03-17T05:58:17;8.85;;;4.90;;
41883;SDS011;27566;50.930;5.328;2024-03-17T06:00:43;10.07;;;5.20;;
41883;SDS011;27566;50.930;5.328;2024-03-17T06:03:09;10.25;;;5.20;;
41883;SDS011;27566;50.930;5.328;2024-03-17T06:05:36;10.27;;;6.13;;
41883;SDS011;27566;50.930;5.328;2024-03-17T06:08:06;15.13;;;6.68;;
41883;SDS011;27566;50.930;5.328;2024-03-17T06:10:34;8.50;;;5.95;;
41883;SDS011;27566;50.930;5.328;2024-03-17T06:13:02;11.07;;;5.95;;
41883;SDS011;27566;50.930;5.328;2024-03-17T06:15:28;11.40;;;5.03;;
41883;SDS011;27566;50.930;5.328;2024-03-17T06:17:54;9.57;;;5.82;;
41883;SDS011;27566;50.930;5.328;2024-03-17T06:20:21;11.07;;;5.05;;
41883;SDS011;27566;50.930;5.328;2024-03-17T06:22:48;7.40;;;5.18;;
41883;SDS011;27566;50.930;5.328;2024-03-17T06:25:15;8.98;;;4.93;;
41883;SDS011;27566;50.930;5.328;2024-03-17T06:27:41;8.60;;;4.97;;
41883;SDS011;27566;50.930;5.328;2024-03-17T06:30:10;13.05;;;4.78;;
41883;SDS011;27566;50.930;5.328;2024-03-17T06:32:42;9.60;;;4.82;;
41883;SDS011;27566;50.930;5.328;2024-03-17T06:35:10;9.73;;;5.50;;
41883;SDS011;27566;50.930;5.328;2024-03-17T06:37:50;7.82;;;4.53;;
41883;SDS011;27566;50.930;5.328;2024-03-17T06:40:17;11.63;;;5.25;;
41883;SDS011;27566;50.930;5.328;2024-03-17T06:42:44;9.30;;;4.40;;
41883;SDS011;27566;50.930;5.328;2024-03-17T06:45:10;9.25;;;4.13;;
41883;SDS011;27566;50.930;5.328;2024-03-17T06:47:36;8.40;;;4.32;;
41883;SDS011;27566;50.930;5.328;2024-03-17T06:50:03;7.43;;;4.50;;
41883;SDS011;27566;50.930;5.328;2024-03-17T06:52:30;9.90;;;4.53;;
41883;SDS011;27566;50.930;5.328;2024-03-17T06:54:56;8.85;;;4.05;;
41883;SDS011;27566;50.930;5.328;2024-03-17T06:57:23;10.13;;;4.88;;
41883;SDS011;27566;50.930;5.328;2024-03-17T06:59:49;9.23;;;4.60;;
41883;SDS011;27566;50.930;5.328;2024-03-17T07:02:16;12.45;;;4.45;;
41883;SDS011;27566;50.930;5.328;2024-03-17T07:04:46;11.30;;;4.45;;
41883;SDS011;27566;50.930;5.328;2024-03-17T07:07:13;10.38;;;5.13;;
41883;SDS011;27566;50.930;5.328;2024-03-17T07:09:39;8.95;;;4.78;;
41883;SDS011;27566;50.930;5.328;2024-03-17T07:12:09;10.23;;;4.68;;
41883;SDS011;27566;50.930;5.328;2024-03-17T07:14:36;8.82;;;4.75;;
41883;SDS011;27566;50.930;5.328;2024-03-17T07:17:02;8.63;;;4.90;;
41883;SDS011;27566;50.930;5.328;2024-03-17T07:19:29;8.30;;;4.97;;
41883;SDS011;27566;50.930;5.328;2024-03-17T07:21:56;10.65;;;5.15;;
41883;SDS011;27566;50.930;5.328;2024-03-17T07:24:22;7.90;;;4.47;;
41883;SDS011;27566;50.930;5.328;2024-03-17T07:26:49;8.77;;;4.00;;
41883;SDS011;27566;50.930;5.328;2024-03-17T07:29:15;11.73;;;4.78;;
41883;SDS011;27566;50.930;5.328;2024-03-17T07:31:42;14.02;;;5.25;;
41883;SDS011;27566;50.930;5.328;2024-03-17T07:34:08;9.55;;;5.30;;
41883;SDS011;27566;50.930;5.328;2024-03-17T07:36:34;9.13;;;4.57;;
41883;SDS011;27566;50.930;5.328;2024-03-17T07:39:00;9.80;;;5.13;;
41883;SDS011;27566;50.930;5.328;2024-03-17T07:41:27;7.22;;;4.10;;
41883;SDS011;27566;50.930;5.328;2024-03-17T07:43:53;8.90;;;4.78;;
41883;SDS011;27566;50.930;5.328;2024-03-17T07:46:19;14.95;;;5.68;;
41883;SDS011;27566;50.930;5.328;2024-03-17T07:48:45;10.15;;;4.70;;
41883;SDS011;27566;50.930;5.328;2024-03-17T07:51:11;9.20;;;5.38;;
41883;SDS011;27566;50.930;5.328;2024-03-17T07:53:39;8.05;;;4.70;;
41883;SDS011;27566;50.930;5.328;2024-03-17T07:56:07;9.20;;;6.05;;
41883;SDS011;27566;50.930;5.328;2024-03-17T07:58:34;12.55;;;4.90;;
41883;SDS011;27566;50.930;5.328;2024-03-17T08:01:04;10.32;;;4.85;;
41883;SDS011;27566;50.930;5.328;2024-03-17T08:03:36;16.55;;;5.65;;
41883;SDS011;27566;50.930;5.328;2024-03-17T08:06:04;9.05;;;5.28;;
41883;SDS011;27566;50.930;5.328;2024-03-17T08:08:31;11.00;;;5.30;;
41883;SDS011;27566;50.930;5.328;2024-03-17T08:10:58;7.30;;;4.38;;
41883;SDS011;27566;50.930;5.328;2024-03-17T08:13:24;6.75;;;4.28;;
41883;SDS011;27566;50.930;5.328;2024-03-17T08:15:58;9.38;;;5.38;;
41883;SDS011;27566;50.930;5.328;2024-03-17T08:18:24;9.32;;;4.50;;
41883;SDS011;27566;50.930;5.328;2024-03-17T08:20:52;9.00;;;4.90;;
41883;SDS011;27566;50.930;5.328;2024-03-17T08:23:19;9.23;;;5.35;;
41883;SDS011;27566;50.930;5.328;2024-03-17T08:25:54;8.30;;;5.03;;
41883;SDS011;27566;50.930;5.328;2024-03-17T08:28:25;8.82;;;4.63;;
41883;SDS011;27566;50.930;5.328;2024-03-17T08:31:00;10.93;;;5.22;;
41883;SDS011;27566;50.930;5.328;2024-03-17T08:33:27;9.95;;;5.00;;
41883;SDS011;27566;50.930;5.328;2024-03-17T08:38:20;11.10;;;6.40;;
41883;SDS011;27566;50.930;5.328;2024-03-17T08:40:48;8.52;;;4.65;;
41883;SDS011;27566;50.930;5.328;2024-03-17T08:43:15;7.05;;;5.03;;
41883;SDS011;27566;50.930;5.328;2024-03-17T08:45:41;7.95;;;4.80;;
41883;SDS011;27566;50.930;5.328;2024-03-17T08:48:07;11.70;;;5.13;;
41883;SDS011;27566;50.930;5.328;2024-03-17T08:50:33;8.77;;;4.55;;
41883;SDS011;27566;50.930;5.328;2024-03-17T08:52:59;10.05;;;5.25;;
41883;SDS011;27566;50.930;5.328;2024-03-17T08:55:25;9.07;;;5.32;;
41883;SDS011;27566;50.930;5.328;2024-03-17T08:57:51;8.98;;;5.07;;
41883;SDS011;27566;50.930;5.328;2024-03-17T09:00:17;9.23;;;4.72;;
41883;SDS011;27566;50.930;5.328;2024-03-17T09:02:43;9.52;;;5.00;;
41883;SDS011;27566;50.930;5.328;2024-03-17T09:05:09;8.82;;;4.50;;
41883;SDS011;27566;50.930;5.328;2024-03-17T09:07:35;8.48;;;4.57;;
41883;SDS011;27566;50.930;5.328;2024-03-17T09:10:01;9.10;;;4.38;;
41883;SDS011;27566;50.930;5.328;2024-03-17T09:12:27;10.80;;;5.00;;
41883;SDS011;27566;50.930;5.328;2024-03-17T09:14:53;9.73;;;4.80;;
41883;SDS011;27566;50.930;5.328;2024-03-17T09:17:19;14.27;;;5.30;;
41883;SDS011;27566;50.930;5.328;2024-03-17T09:19:46;8.55;;;4.38;;
41883;SDS011;27566;50.930;5.328;2024-03-17T09:22:12;12.52;;;4.72;;
41883;SDS011;27566;50.930;5.328;2024-03-17T09:24:39;7.90;;;4.57;;
41883;SDS011;27566;50.930;5.328;2024-03-17T09:27:06;10.35;;;4.22;;
41883;SDS011;27566;50.930;5.328;2024-03-17T09:29:32;6.88;;;4.00;;
41883;SDS011;27566;50.930;5.328;2024-03-17T09:32:00;8.65;;;4.93;;
41883;SDS011;27566;50.930;5.328;2024-03-17T09:34:26;6.65;;;4.00;;
41883;SDS011;27566;50.930;5.328;2024-03-17T09:36:52;8.45;;;4.18;;
41883;SDS011;27566;50.930;5.328;2024-03-17T09:39:18;7.97;;;3.80;;
41883;SDS011;27566;50.930;5.328;2024-03-17T09:41:44;6.30;;;3.83;;
41883;SDS011;27566;50.930;5.328;2024-03-17T09:44:12;8.57;;;4.65;;
41883;SDS011;27566;50.930;5.328;2024-03-17T09:46:40;6.53;;;3.67;;
41883;SDS011;27566;50.930;5.328;2024-03-17T09:49:14;6.05;;;3.13;;
41883;SDS011;27566;50.930;5.328;2024-03-17T09:51:42;8.15;;;3.75;;
41883;SDS011;27566;50.930;5.328;2024-03-17T09:54:18;6.55;;;3.40;;
41883;SDS011;27566;50.930;5.328;2024-03-17T09:56:44;6.85;;;3.28;;
41883;SDS011;27566;50.930;5.328;2024-03-17T09:59:29;5.85;;;3.13;;
41883;SDS011;27566;50.930;5.328;2024-03-17T10:01:55;6.57;;;2.85;;
41883;SDS011;27566;50.930;5.328;2024-03-17T10:04:31;5.97;;;3.05;;
41883;SDS011;27566;50.930;5.328;2024-03-17T10:07:00;5.70;;;3.17;;
41883;SDS011;27566;50.930;5.328;2024-03-17T10:09:27;7.10;;;3.70;;
41883;SDS011;27566;50.930;5.328;2024-03-17T10:11:57;4.80;;;2.72;;
41883;SDS011;27566;50.930;5.328;2024-03-17T10:14:23;6.00;;;2.63;;
41883;SDS011;27566;50.930;5.328;2024-03-17T10:17:00;7.72;;;3.40;;
41883;SDS011;27566;50.930;5.328;2024-03-17T10:19:26;6.03;;;3.40;;
41883;SDS011;27566;50.930;5.328;2024-03-17T10:22:00;5.72;;;2.65;;
41883;SDS011;27566;50.930;5.328;2024-03-17T10:24:27;7.10;;;3.58;;
41883;SDS011;27566;50.930;5.328;2024-03-17T10:26:57;5.97;;;2.97;;
41883;SDS011;27566;50.930;5.328;2024-03-17T10:29:28;6.57;;;2.85;;
41883;SDS011;27566;50.930;5.328;2024-03-17T10:31:58;5.95;;;3.25;;
41883;SDS011;27566;50.930;5.328;2024-03-17T10:34:28;5.50;;;3.05;;
41883;SDS011;27566;50.930;5.328;2024-03-17T10:37:16;7.97;;;3.97;;
41883;SDS011;27566;50.930;5.328;2024-03-17T10:39:52;6.93;;;3.40;;
41883;SDS011;27566;50.930;5.328;2024-03-17T10:42:25;6.53;;;3.47;;
41883;SDS011;27566;50.930;5.328;2024-03-17T10:45:01;8.52;;;4.03;;
41883;SDS011;27566;50.930;5.328;2024-03-17T10:47:27;9.70;;;3.90;;
41883;SDS011;27566;50.930;5.328;2024-03-17T10:49:54;5.35;;;3.53;;
41883;SDS011;27566;50.930;5.328;2024-03-17T10:52:21;6.30;;;3.40;;
41883;SDS011;27566;50.930;5.328;2024-03-17T10:54:54;7.10;;;4.38;;
41883;SDS011;27566;50.930;5.328;2024-03-17T11:00:14;12.57;;;3.55;;
41883;SDS011;27566;50.930;5.328;2024-03-17T11:02:45;9.80;;;3.63;;
41883;SDS011;27566;50.930;5.328;2024-03-17T11:07:45;7.43;;;3.58;;
41883;SDS011;27566;50.930;5.328;2024-03-17T11:10:22;10.50;;;3.58;;
41883;SDS011;27566;50.930;5.328;2024-03-17T11:12:50;6.95;;;4.10;;
41883;SDS011;27566;50.930;5.328;2024-03-17T11:17:55;7.60;;;4.45;;
41883;SDS011;27566;50.930;5.328;2024-03-17T11:20:37;6.35;;;3.35;;
41883;SDS011;27566;50.930;5.328;2024-03-17T11:23:04;10.07;;;4.45;;
41883;SDS011;27566;50.930;5.328;2024-03-17T11:28:02;9.80;;;3.63;;
41883;SDS011;27566;50.930;5.328;2024-03-17T11:38:52;5.88;;;3.13;;
41883;SDS011;27566;50.930;5.328;2024-03-17T11:46:56;10.82;;;3.83;;
41883;SDS011;27566;50.930;5.328;2024-03-17T11:49:33;7.40;;;3.28;;
41883;SDS011;27566;50.930;5.328;2024-03-17T11:52:03;7.88;;;4.40;;
41883;SDS011;27566;50.930;5.328;2024-03-17T11:54:32;5.88;;;3.30;;
41883;SDS011;27566;50.930;5.328;2024-03-17T11:57:03;6.00;;;3.55;;
41883;SDS011;27566;50.930;5.328;2024-03-17T11:59:35;7.60;;;3.58;;
41883;SDS011;27566;50.930;5.328;2024-03-17T12:02:47;8.05;;;3.13;;
41883;SDS011;27566;50.930;5.328;2024-03-17T12:04:57;8.25;;;4.45;;
41883;SDS011;27566;50.930;5.328;2024-03-17T12:07:24;7.53;;;4.07;;
41883;SDS011;27566;50.930;5.328;2024-03-17T12:09:53;8.27;;;3.40;;
41883;SDS011;27566;50.930;5.328;2024-03-17T12:12:21;8.38;;;4.57;;
41883;SDS011;27566;50.930;5.328;2024-03-17T12:14:49;10.38;;;5.78;;
41883;SDS011;27566;50.930;5.328;2024-03-17T12:17:22;12.60;;;4.78;;
41883;SDS011;27566;50.930;5.328;2024-03-17T12:19:52;7.55;;;4.38;;
41883;SDS011;27566;50.930;5.328;2024-03-17T12:22:19;6.60;;;3.50;;
41883;SDS011;27566;50.930;5.328;2024-03-17T12:24:53;9.57;;;4.13;;
41883;SDS011;27566;50.930;5.328;2024-03-17T12:27:21;9.48;;;3.70;;
41883;SDS011;27566;50.930;5.328;2024-03-17T12:29:48;8.30;;;3.83;;
41883;SDS011;27566;50.930;5.328;2024-03-17T12:32:20;10.00;;;5.47;;
41883;SDS011;27566;50.930;5.328;2024-03-17T12:34:54;6.55;;;3.35;;
41883;SDS011;27566;50.930;5.328;2024-03-17T12:37:26;6.63;;;2.53;;
41883;SDS011;27566;50.930;5.328;2024-03-17T12:39:59;4.43;;;2.28;;
41883;SDS011;27566;50.930;5.328;2024-03-17T12:42:26;6.55;;;3.28;;
41883;SDS011;27566;50.930;5.328;2024-03-17T12:44:53;6.35;;;3.20;;
41883;SDS011;27566;50.930;5.328;2024-03-17T12:47:23;6.90;;;3.58;;
41883;SDS011;27566;50.930;5.328;2024-03-17T12:49:54;5.97;;;3.80;;
41883;SDS011;27566;50.930;5.328;2024-03-17T12:55:03;9.20;;;4.28;;
41883;SDS011;27566;50.930;5.328;2024-03-17T12:58:07;6.38;;;2.95;;
41883;SDS011;27566;50.930;5.328;2024-03-17T13:01:02;7.95;;;3.75;;
41883;SDS011;27566;50.930;5.328;2024-03-17T13:03:30;7.88;;;4.35;;
41883;SDS011;27566;50.930;5.328;2024-03-17T13:06:03;6.53;;;3.05;;
41883;SDS011;27566;50.930;5.328;2024-03-17T13:08:33;5.40;;;2.55;;
41883;SDS011;27566;50.930;5.328;2024-03-17T13:10:59;7.50;;;3.65;;
41883;SDS011;27566;50.930;5.328;2024-03-17T13:13:27;7.13;;;3.47;;
41883;SDS011;27566;50.930;5.328;2024-03-17T13:15:53;7.68;;;3.45;;
41883;SDS011;27566;50.930;5.328;2024-03-17T13:18:19;7.40;;;3.15;;
41883;SDS011;27566;50.930;5.328;2024-03-17T13:20:45;6.68;;;3.00;;
41883;SDS011;27566;50.930;5.328;2024-03-17T13:23:12;5.55;;;3.83;;
41883;SDS011;27566;50.930;5.328;2024-03-17T13:25:38;6.38;;;3.05;;
41883;SDS011;27566;50.930;5.328;2024-03-17T13:28:08;8.35;;;2.97;;
41883;SDS011;27566;50.930;5.328;2024-03-17T13:30:35;9.32;;;3.67;;
41883;SDS011;27566;50.930;5.328;2024-03-17T13:33:02;6.28;;;2.80;;
41883;SDS011;27566;50.930;5.328;2024-03-17T13:35:49;7.40;;;3.00;;
41883;SDS011;27566;50.930;5.328;2024-03-17T13:38:15;6.47;;;2.80;;
41883;SDS011;27566;50.930;5.328;2024-03-17T13:40:41;9.80;;;3.92;;
41883;SDS011;27566;50.930;5.328;2024-03-17T13:43:07;7.47;;;3.47;;
41883;SDS011;27566;50.930;5.328;2024-03-17T13:45:41;8.00;;;3.38;;
41883;SDS011;27566;50.930;5.328;2024-03-17T13:48:12;4.93;;;2.95;;
41883;SDS011;27566;50.930;5.328;2024-03-17T13:50:39;9.05;;;3.92;;
41883;SDS011;27566;50.930;5.328;2024-03-17T13:53:09;10.73;;;4.25;;
41883;SDS011;27566;50.930;5.328;2024-03-17T13:55:35;6.57;;;3.50;;
41883;SDS011;27566;50.930;5.328;2024-03-17T13:58:01;7.22;;;3.05;;
41883;SDS011;27566;50.930;5.328;2024-03-17T14:00:29;7.93;;;2.70;;
41883;SDS011;27566;50.930;5.328;2024-03-17T14:02:56;5.38;;;3.03;;
41883;SDS011;27566;50.930;5.328;2024-03-17T14:05:23;9.85;;;2.58;;
41883;SDS011;27566;50.930;5.328;2024-03-17T14:07:51;7.03;;;2.80;;
41883;SDS011;27566;50.930;5.328;2024-03-17T14:10:22;9.35;;;3.60;;
41883;SDS011;27566;50.930;5.328;2024-03-17T14:12:49;8.82;;;3.75;;
41883;SDS011;27566;50.930;5.328;2024-03-17T14:15:15;10.13;;;4.22;;
41883;SDS011;27566;50.930;5.328;2024-03-17T14:17:42;8.90;;;4.57;;
41883;SDS011;27566;50.930;5.328;2024-03-17T14:20:10;7.05;;;3.55;;
41883;SDS011;27566;50.930;5.328;2024-03-17T14:22:41;5.40;;;2.70;;
41883;SDS011;27566;50.930;5.328;2024-03-17T14:25:09;7.38;;;3.42;;
41883;SDS011;27566;50.930;5.328;2024-03-17T14:27:46;6.07;;;2.40;;
41883;SDS011;27566;50.930;5.328;2024-03-17T14:30:16;6.53;;;3.30;;
41883;SDS011;27566;50.930;5.328;2024-03-17T14:32:44;6.03;;;2.78;;
41883;SDS011;27566;50.930;5.328;2024-03-17T14:35:14;8.82;;;3.15;;
41883;SDS011;27566;50.930;5.328;2024-03-17T14:37:41;5.22;;;2.78;;
41883;SDS011;27566;50.930;5.328;2024-03-17T14:40:08;6.55;;;2.55;;
41883;SDS011;27566;50.930;5.328;2024-03-17T14:42:42;8.02;;;3.28;;
41883;SDS011;27566;50.930;5.328;2024-03-17T14:45:12;7.32;;;3.00;;
41883;SDS011;27566;50.930;5.328;2024-03-17T14:47:38;3.28;;;2.25;;
41883;SDS011;27566;50.930;5.328;2024-03-17T14:50:05;8.07;;;2.85;;
41883;SDS011;27566;50.930;5.328;2024-03-17T14:52:31;9.07;;;2.53;;
41883;SDS011;27566;50.930;5.328;2024-03-17T14:54:57;6.30;;;2.05;;
41883;SDS011;27566;50.930;5.328;2024-03-17T14:57:24;8.38;;;3.22;;
41883;SDS011;27566;50.930;5.328;2024-03-17T14:59:49;6.43;;;2.80;;
41883;SDS011;27566;50.930;5.328;2024-03-17T15:02:15;7.97;;;3.45;;
41883;SDS011;27566;50.930;5.328;2024-03-17T15:04:41;3.40;;;1.73;;
41883;SDS011;27566;50.930;5.328;2024-03-17T15:07:07;6.97;;;2.63;;
41883;SDS011;27566;50.930;5.328;2024-03-17T15:09:34;6.07;;;2.33;;
41883;SDS011;27566;50.930;5.328;2024-03-17T15:12:00;5.45;;;2.75;;
41883;SDS011;27566;50.930;5.328;2024-03-17T15:14:32;6.40;;;2.75;;
41883;SDS011;27566;50.930;5.328;2024-03-17T15:16:58;4.85;;;2.97;;
41883;SDS011;27566;50.930;5.328;2024-03-17T15:19:27;5.60;;;2.10;;